createdAt,value
2022-10-19T00:00:24.488Z,55.59
2022-10-19T00:01:24.491Z,54.79
2022-10-19T00:02:24.549Z,56.24
2022-10-19T00:03:24.452Z,57.85
2022-10-19T00:04:24.426Z,55.91
2022-10-19T00:05:24.427Z,57.04
2022-10-19T00:06:24.466Z,60.10
2022-10-19T00:07:24.392Z,55.27
2022-10-19T00:08:24.384Z,57.85
2022-10-19T00:09:24.397Z,56.88
2022-10-19T00:10:24.366Z,55.91
2022-10-19T00:11:24.355Z,55.91
2022-10-19T00:12:24.345Z,60.75
2022-10-19T00:13:24.321Z,55.91
2022-10-19T00:14:24.301Z,56.56
2022-10-19T00:15:24.290Z,58.17
2022-10-19T00:16:24.301Z,55.91
2022-10-19T00:17:24.279Z,57.04
2022-10-19T00:18:24.251Z,57.04
2022-10-19T00:19:24.276Z,60.42
2022-10-19T00:20:24.257Z,57.20
2022-10-19T00:21:24.220Z,56.07
2022-10-19T00:22:24.255Z,58.65
2022-10-19T00:23:24.197Z,56.56
2022-10-19T00:24:24.187Z,58.33
2022-10-19T00:25:24.173Z,57.04
2022-10-19T00:26:24.159Z,63.49
2022-10-19T00:27:24.143Z,56.72
2022-10-19T00:28:24.118Z,58.81
2022-10-19T00:29:24.127Z,60.10
2022-10-19T00:30:24.098Z,56.72
2022-10-19T00:31:24.082Z,55.59
2022-10-19T00:32:24.098Z,58.65
2022-10-19T00:33:24.059Z,57.04
2022-10-19T00:34:24.045Z,61.87
2022-10-19T00:35:24.055Z,56.72
2022-10-19T00:36:24.018Z,57.20
2022-10-19T00:37:24.008Z,56.88
2022-10-19T00:38:24.000Z,58.33
2022-10-19T00:39:23.980Z,61.07
2022-10-19T00:40:23.972Z,56.88
2022-10-19T00:41:23.980Z,57.04
2022-10-19T00:42:23.950Z,57.20
2022-10-19T00:43:23.936Z,56.72
2022-10-19T00:44:23.973Z,57.52
2022-10-19T00:45:23.900Z,58.01
2022-10-19T00:46:23.890Z,61.39
2022-10-19T00:47:24.518Z,59.46
2022-10-19T00:48:23.897Z,60.10
2022-10-19T00:49:23.862Z,53.98
2022-10-19T00:50:23.839Z,50.27
2022-10-19T00:51:23.839Z,55.75
2022-10-19T00:52:23.820Z,66.55
2022-10-19T00:53:29.825Z,57.20
2022-10-19T00:54:23.786Z,53.33
2022-10-19T00:55:23.776Z,52.69
2022-10-19T00:56:23.760Z,45.92
2022-10-19T00:57:23.773Z,55.43
2022-10-19T00:58:23.747Z,51.08
2022-10-19T00:59:23.742Z,57.36
2022-10-19T01:00:23.720Z,50.60
2022-10-19T01:01:23.744Z,59.78
2022-10-19T01:02:23.700Z,58.65
2022-10-19T01:03:23.679Z,58.49
2022-10-19T01:04:23.689Z,48.50
2022-10-19T01:05:23.658Z,57.52
2022-10-19T01:06:23.636Z,49.63
2022-10-19T01:07:23.630Z,56.40
2022-10-19T01:08:23.621Z,61.07
2022-10-19T01:09:23.882Z,59.14
2022-10-19T01:10:23.586Z,45.92
2022-10-19T01:11:23.579Z,55.91
2022-10-19T01:12:23.559Z,57.04
2022-10-19T01:13:23.543Z,53.17
2022-10-19T01:14:23.529Z,47.37
2022-10-19T01:15:23.529Z,63.81
2022-10-19T01:16:23.511Z,59.14
2022-10-19T01:17:23.506Z,58.01
2022-10-19T01:18:23.489Z,48.66
2022-10-19T01:19:23.470Z,48.66
2022-10-19T01:20:23.454Z,48.02
2022-10-19T01:21:23.455Z,47.37
2022-10-19T01:22:23.429Z,47.70
2022-10-19T01:23:23.427Z,54.95
2022-10-19T01:24:23.640Z,48.98
2022-10-19T01:25:23.396Z,50.11
2022-10-19T01:26:23.383Z,50.11
2022-10-19T01:27:23.364Z,48.34
2022-10-19T01:28:23.372Z,55.11
2022-10-19T01:29:23.353Z,47.70
2022-10-19T01:30:23.328Z,53.66
2022-10-19T01:31:23.948Z,61.39
2022-10-19T01:32:23.307Z,49.31
2022-10-19T01:33:23.289Z,46.25
2022-10-19T01:34:23.282Z,55.59
2022-10-19T01:35:23.268Z,59.14
2022-10-19T01:36:23.252Z,54.14
2022-10-19T01:37:23.242Z,48.98
2022-10-19T01:38:23.228Z,52.53
2022-10-19T01:39:23.215Z,58.97
2022-10-19T01:40:23.196Z,59.14
2022-10-19T01:41:23.197Z,47.70
2022-10-19T01:42:23.171Z,53.17
2022-10-19T01:43:23.164Z,49.63
2022-10-19T01:44:23.147Z,61.55
2022-10-19T01:45:23.134Z,54.46
2022-10-19T01:46:23.125Z,50.76
2022-10-19T01:47:23.123Z,48.82
2022-10-19T01:48:23.106Z,48.66
2022-10-19T01:49:23.085Z,48.98
2022-10-19T01:50:23.067Z,62.84
2022-10-19T01:51:23.054Z,58.97
2022-10-19T01:52:23.043Z,56.07
2022-10-19T01:53:23.048Z,58.81
2022-10-19T01:54:23.031Z,44.47
2022-10-19T01:55:23.015Z,56.72
2022-10-19T01:56:22.991Z,63.97
2022-10-19T01:57:23.053Z,63.33
2022-10-19T01:58:23.028Z,52.37
2022-10-19T01:59:22.975Z,53.50
2022-10-19T02:00:22.963Z,59.30
2022-10-19T02:01:22.944Z,49.15
2022-10-19T02:02:22.911Z,48.66
2022-10-19T02:03:22.902Z,51.88
2022-10-19T02:04:22.896Z,52.21
2022-10-19T02:05:22.890Z,61.71
2022-10-19T02:06:22.862Z,63.65
2022-10-19T02:07:22.947Z,59.14
2022-10-19T02:08:22.837Z,47.21
2022-10-19T02:09:22.831Z,63.97
2022-10-19T02:10:22.825Z,65.10
2022-10-19T02:11:22.806Z,51.56
2022-10-19T02:12:22.787Z,49.47
2022-10-19T02:13:22.775Z,53.66
2022-10-19T02:14:22.762Z,52.05
2022-10-19T02:15:22.749Z,52.21
2022-10-19T02:16:22.735Z,49.15
2022-10-19T02:17:22.786Z,49.31
2022-10-19T02:18:22.711Z,50.76
2022-10-19T02:20:22.683Z,46.73
2022-10-19T02:21:22.678Z,49.15
2022-10-19T02:22:22.659Z,51.08
2022-10-19T02:23:22.658Z,52.21
2022-10-19T02:24:22.631Z,50.92
2022-10-19T02:25:22.628Z,58.17
2022-10-19T02:26:22.616Z,61.55
2022-10-19T02:27:22.644Z,52.21
2022-10-19T02:28:22.630Z,63.49
2022-10-19T02:29:22.592Z,65.10
2022-10-19T02:30:22.555Z,68.96
2022-10-19T02:31:22.545Z,57.36
2022-10-19T02:32:22.535Z,52.05
2022-10-19T02:33:22.514Z,60.91
2022-10-19T02:34:22.500Z,61.87
2022-10-19T02:35:22.509Z,59.78
2022-10-19T02:36:22.495Z,52.69
2022-10-19T02:37:24.766Z,56.56
2022-10-19T02:38:22.450Z,60.26
2022-10-19T02:39:22.439Z,59.30
2022-10-19T02:40:22.474Z,61.23
2022-10-19T02:41:22.420Z,58.33
2022-10-19T02:42:22.402Z,65.42
2022-10-19T02:43:22.406Z,63.49
2022-10-19T02:44:22.381Z,57.04
2022-10-19T02:45:22.376Z,58.97
2022-10-19T02:46:22.411Z,57.85
2022-10-19T02:47:22.493Z,61.39
2022-10-19T02:48:22.333Z,56.24
2022-10-19T02:49:22.315Z,62.68
2022-10-19T02:50:22.348Z,53.50
2022-10-19T02:51:22.291Z,58.01
2022-10-19T02:52:22.286Z,63.16
2022-10-19T02:53:22.314Z,61.55
2022-10-19T02:54:22.246Z,50.76
2022-10-19T02:55:22.235Z,58.81
2022-10-19T02:56:22.228Z,62.52
2022-10-19T02:57:22.324Z,55.43
2022-10-19T02:58:22.195Z,64.61
2022-10-19T02:59:22.221Z,61.23
2022-10-19T03:00:22.201Z,58.49
2022-10-19T03:01:22.164Z,52.53
2022-10-19T03:02:22.149Z,59.30
2022-10-19T03:03:22.148Z,52.37
2022-10-19T03:04:22.126Z,57.85
2022-10-19T03:05:22.133Z,51.56
2022-10-19T03:06:22.135Z,68.80
2022-10-19T03:07:22.081Z,59.14
2022-10-19T03:08:22.070Z,58.17
2022-10-19T03:09:22.096Z,60.75
2022-10-19T03:10:22.045Z,66.23
2022-10-19T03:11:22.053Z,65.58
2022-10-19T03:12:22.021Z,55.43
2022-10-19T03:13:22.016Z,66.71
2022-10-19T03:14:21.992Z,65.90
2022-10-19T03:15:21.986Z,61.07
2022-10-19T03:16:21.979Z,72.83
2022-10-19T03:17:21.964Z,63.16
2022-10-19T03:18:21.940Z,65.58
2022-10-19T03:19:21.941Z,55.11
2022-10-19T03:20:21.925Z,58.81
2022-10-19T03:21:21.902Z,68.48
2022-10-19T03:22:21.943Z,64.29
2022-10-19T03:23:21.903Z,68.32
2022-10-19T03:24:21.865Z,69.61
2022-10-19T03:25:21.856Z,65.42
2022-10-19T03:26:21.858Z,60.42
2022-10-19T03:27:21.831Z,68.80
2022-10-19T03:28:21.813Z,58.01
2022-10-19T03:29:21.813Z,71.06
2022-10-19T03:30:21.794Z,67.19
2022-10-19T03:31:21.783Z,60.10
2022-10-19T03:32:21.775Z,62.20
2022-10-19T03:33:21.791Z,61.39
2022-10-19T03:34:21.740Z,61.07
2022-10-19T03:35:21.798Z,60.42
2022-10-19T03:36:21.720Z,62.52
2022-10-19T03:37:21.704Z,67.68
2022-10-19T03:38:21.736Z,63.49
2022-10-19T03:39:21.680Z,60.59
2022-10-19T03:40:21.668Z,70.09
2022-10-19T03:41:21.660Z,70.58
2022-10-19T03:42:21.665Z,64.94
2022-10-19T03:43:21.630Z,70.09
2022-10-19T03:44:21.613Z,65.74
2022-10-19T03:45:21.613Z,64.29
2022-10-19T03:46:21.616Z,70.09
2022-10-19T03:47:21.610Z,63.65
2022-10-19T03:48:21.575Z,64.45
2022-10-19T03:49:21.573Z,68.64
2022-10-19T03:50:21.546Z,70.09
2022-10-19T03:51:21.547Z,61.07
2022-10-19T03:52:21.518Z,69.61
2022-10-19T03:53:21.518Z,61.39
2022-10-19T03:54:23.717Z,62.20
2022-10-19T03:55:21.483Z,74.44
2022-10-19T03:56:21.475Z,66.87
2022-10-19T03:57:21.461Z,69.13
2022-10-19T03:58:21.459Z,65.42
2022-10-19T03:59:21.489Z,65.42
2022-10-19T04:00:21.410Z,66.55
2022-10-19T04:01:21.441Z,70.58
2022-10-19T04:02:21.426Z,60.26
2022-10-19T04:03:21.374Z,66.55
2022-10-19T04:04:21.362Z,68.80
2022-10-19T04:05:21.363Z,63.49
2022-10-19T04:06:22.189Z,68.64
2022-10-19T04:07:21.382Z,70.09
2022-10-19T04:08:21.305Z,61.23
2022-10-19T04:09:21.296Z,63.65
2022-10-19T04:10:21.336Z,61.71
2022-10-19T04:11:21.294Z,68.80
2022-10-19T04:12:21.262Z,64.78
2022-10-19T04:13:21.313Z,61.39
2022-10-19T04:14:31.822Z,60.91
2022-10-19T04:15:21.221Z,71.38
2022-10-19T04:16:21.209Z,62.68
2022-10-19T04:17:21.234Z,67.84
2022-10-19T04:18:21.180Z,63.65
2022-10-19T04:19:21.165Z,67.68
2022-10-19T04:20:21.200Z,71.22
2022-10-19T04:21:21.172Z,69.13
2022-10-19T04:22:21.134Z,72.51
2022-10-19T04:23:21.199Z,61.71
2022-10-19T04:24:21.112Z,65.26
2022-10-19T04:25:21.092Z,67.03
2022-10-19T04:26:21.112Z,68.00
2022-10-19T04:27:21.074Z,69.13
2022-10-19T04:28:21.051Z,64.94
2022-10-19T04:29:22.763Z,60.42
2022-10-19T04:30:21.113Z,61.55
2022-10-19T04:31:21.018Z,65.58
2022-10-19T04:32:21.000Z,72.19
2022-10-19T04:33:21.049Z,77.50
2022-10-19T04:34:20.977Z,65.90
2022-10-19T04:35:20.979Z,62.68
2022-10-19T04:36:20.993Z,68.00
2022-10-19T04:37:20.958Z,63.81
2022-10-19T04:38:20.941Z,62.84
2022-10-19T04:39:20.915Z,68.80
2022-10-19T04:40:20.911Z,64.29
2022-10-19T04:41:20.921Z,76.54
2022-10-19T04:42:20.887Z,68.80
2022-10-19T04:43:20.866Z,65.90
2022-10-19T04:44:20.940Z,60.10
2022-10-19T04:45:20.842Z,71.06
2022-10-19T04:46:20.833Z,68.96
2022-10-19T04:47:20.826Z,67.84
2022-10-19T04:48:20.802Z,70.42
2022-10-19T04:49:20.794Z,71.06
2022-10-19T04:50:20.777Z,70.42
2022-10-19T04:51:20.777Z,68.48
2022-10-19T04:52:20.752Z,69.45
2022-10-19T04:53:20.803Z,69.77
2022-10-19T04:54:20.736Z,73.96
2022-10-19T04:55:20.759Z,71.22
2022-10-19T04:56:20.707Z,69.77
2022-10-19T04:57:20.693Z,66.71
2022-10-19T04:58:20.688Z,70.09
2022-10-19T04:59:20.684Z,64.94
2022-10-19T05:00:20.652Z,65.10
2022-10-19T05:01:20.733Z,68.64
2022-10-19T05:02:26.636Z,69.45
2022-10-19T05:03:20.614Z,68.00
2022-10-19T05:04:26.616Z,69.61
2022-10-19T05:05:20.581Z,70.42
2022-10-19T05:06:26.587Z,67.35
2022-10-19T05:07:20.612Z,71.70
2022-10-19T05:08:26.582Z,71.06
2022-10-19T05:09:20.537Z,69.45
2022-10-19T05:10:20.545Z,70.58
2022-10-19T05:11:20.506Z,68.16
2022-10-19T05:12:20.509Z,69.77
2022-10-19T05:13:20.489Z,69.93
2022-10-19T05:14:20.490Z,72.67
2022-10-19T05:15:20.463Z,62.20
2022-10-19T05:16:20.480Z,69.13
2022-10-19T05:17:20.896Z,72.83
2022-10-19T05:18:20.426Z,68.96
2022-10-19T05:19:20.411Z,67.51
2022-10-19T05:20:20.454Z,70.42
2022-10-19T05:21:20.354Z,70.58
2022-10-19T05:22:20.340Z,70.42
2022-10-19T05:23:20.452Z,70.42
2022-10-19T05:24:20.344Z,69.45
2022-10-19T05:25:20.290Z,71.54
2022-10-19T05:26:20.303Z,72.51
2022-10-19T05:27:20.268Z,71.38
2022-10-19T05:28:20.273Z,73.80
2022-10-19T05:29:20.226Z,71.06
2022-10-19T05:30:20.222Z,71.06
2022-10-19T05:31:20.212Z,68.64
2022-10-19T05:32:20.191Z,71.38
2022-10-19T05:33:20.189Z,72.67
2022-10-19T05:34:20.186Z,70.09
2022-10-19T05:35:22.447Z,69.13
2022-10-19T05:36:20.154Z,68.32
2022-10-19T05:37:20.132Z,65.58
2022-10-19T05:38:20.118Z,71.22
2022-10-19T05:39:20.179Z,72.83
2022-10-19T05:40:20.111Z,71.22
2022-10-19T05:41:20.085Z,72.83
2022-10-19T05:42:20.118Z,69.77
2022-10-19T05:43:20.061Z,70.09
2022-10-19T05:44:20.059Z,73.80
2022-10-19T05:45:20.074Z,73.64
2022-10-19T05:46:20.033Z,69.29
2022-10-19T05:47:20.007Z,72.19
2022-10-19T05:48:20.042Z,71.22
2022-10-19T05:49:19.989Z,71.06
2022-10-19T05:50:19.972Z,72.51
2022-10-19T05:51:20.087Z,72.35
2022-10-19T05:52:19.966Z,71.06
2022-10-19T05:53:19.927Z,72.83
2022-10-19T05:54:21.804Z,71.70
2022-10-19T05:55:19.905Z,72.19
2022-10-19T05:56:19.913Z,71.70
2022-10-19T05:57:19.880Z,71.06
2022-10-19T05:58:19.912Z,72.83
2022-10-19T05:59:19.876Z,73.64
2022-10-19T06:00:19.983Z,71.38
2022-10-19T06:01:19.849Z,72.51
2022-10-19T06:02:19.813Z,72.99
2022-10-19T06:03:19.806Z,64.94
2022-10-19T06:04:19.893Z,71.22
2022-10-19T06:05:19.780Z,71.06
2022-10-19T06:06:19.765Z,70.09
2022-10-19T06:07:19.762Z,70.74
2022-10-19T06:08:19.786Z,70.42
2022-10-19T06:09:19.735Z,67.35
2022-10-19T06:10:19.734Z,69.61
2022-10-19T06:11:19.708Z,71.06
2022-10-19T06:12:22.870Z,70.74
2022-10-19T06:13:19.718Z,71.87
2022-10-19T06:14:19.665Z,69.13
2022-10-19T06:15:19.693Z,68.64
2022-10-19T06:16:19.658Z,69.13
2022-10-19T06:17:19.642Z,70.09
2022-10-19T06:18:19.628Z,67.51
2022-10-19T06:19:19.599Z,67.51
2022-10-19T06:20:19.601Z,68.00
2022-10-19T06:21:19.644Z,73.32
2022-10-19T06:22:19.617Z,70.90
2022-10-19T06:23:19.593Z,72.67
2022-10-19T06:24:19.583Z,71.70
2022-10-19T06:25:20.467Z,70.90
2022-10-19T06:26:19.552Z,71.38
2022-10-19T06:27:19.577Z,69.45
2022-10-19T06:28:19.508Z,73.64
2022-10-19T06:29:19.494Z,68.48
2022-10-19T06:30:19.510Z,70.58
2022-10-19T06:31:19.465Z,70.42
2022-10-19T06:32:19.498Z,71.06
2022-10-19T06:33:19.438Z,70.09
2022-10-19T06:34:19.501Z,69.13
2022-10-19T06:35:19.426Z,69.29
2022-10-19T06:36:19.466Z,70.90
2022-10-19T06:37:19.383Z,75.25
2022-10-19T06:38:19.370Z,67.68
2022-10-19T06:39:19.355Z,67.84
2022-10-19T06:40:19.476Z,69.13
2022-10-19T06:41:19.335Z,75.57
2022-10-19T06:42:19.437Z,68.80
2022-10-19T06:43:19.465Z,71.38
2022-10-19T06:44:19.485Z,67.35
2022-10-19T06:45:19.391Z,69.77
2022-10-19T06:46:19.299Z,67.84
2022-10-19T06:47:19.260Z,72.03
2022-10-19T06:48:19.233Z,69.29
2022-10-19T06:49:19.248Z,70.74
2022-10-19T06:50:19.223Z,73.32
2022-10-19T06:51:19.396Z,69.61
2022-10-19T06:52:19.221Z,66.87
2022-10-19T06:53:19.176Z,71.22
2022-10-19T06:54:19.162Z,71.70
2022-10-19T06:55:19.147Z,68.80
2022-10-19T06:56:19.145Z,71.06
2022-10-19T06:57:19.134Z,71.87
2022-10-19T06:58:19.133Z,66.23
2022-10-19T06:59:19.138Z,69.77
2022-10-19T07:00:19.081Z,74.77
2022-10-19T07:01:19.148Z,70.74
2022-10-19T07:02:19.074Z,70.09
2022-10-19T07:03:19.040Z,67.19
2022-10-19T07:04:19.070Z,70.58
2022-10-19T07:05:19.039Z,70.90
2022-10-19T07:06:19.004Z,67.51
2022-10-19T07:07:19.009Z,68.16
2022-10-19T07:08:19.008Z,71.70
2022-10-19T07:09:18.975Z,70.09
2022-10-19T07:10:18.978Z,71.70
2022-10-19T07:11:18.946Z,76.05
2022-10-19T07:12:18.954Z,70.09
2022-10-19T07:13:18.924Z,75.89
2022-10-19T07:14:18.907Z,65.26
2022-10-19T07:15:18.923Z,68.80
2022-10-19T07:16:21.280Z,69.93
2022-10-19T07:17:18.863Z,68.00
2022-10-19T07:18:18.892Z,70.25
2022-10-19T07:19:18.852Z,71.87
2022-10-19T07:20:18.835Z,69.61
2022-10-19T07:21:18.953Z,69.61
2022-10-19T07:22:23.283Z,66.55
2022-10-19T07:23:18.826Z,69.29
2022-10-19T07:24:19.054Z,67.84
2022-10-19T07:25:18.779Z,69.93
2022-10-19T07:26:18.783Z,64.78
2022-10-19T07:27:18.749Z,64.13
2022-10-19T07:28:19.363Z,66.06
2022-10-19T07:29:18.724Z,67.35
2022-10-19T07:30:18.718Z,68.16
2022-10-19T07:31:18.718Z,68.00
2022-10-19T07:32:18.725Z,71.06
2022-10-19T07:33:18.674Z,69.93
2022-10-19T07:34:18.715Z,65.26
2022-10-19T07:35:18.650Z,70.42
2022-10-19T07:36:18.658Z,68.64
2022-10-19T07:37:18.652Z,70.42
2022-10-19T07:38:18.721Z,67.03
2022-10-19T07:39:18.620Z,71.06
2022-10-19T07:40:18.591Z,66.06
2022-10-19T07:41:18.576Z,68.80
2022-10-19T07:42:18.601Z,68.00
2022-10-19T07:43:18.582Z,71.87
2022-10-19T07:44:18.529Z,64.29
2022-10-19T07:45:18.801Z,68.96
2022-10-19T07:46:18.540Z,67.51
2022-10-19T07:47:18.499Z,69.61
2022-10-19T07:48:18.502Z,74.12
2022-10-19T07:49:18.510Z,68.64
2022-10-19T07:50:18.509Z,71.70
2022-10-19T07:51:18.493Z,71.54
2022-10-19T07:52:30.751Z,68.96
2022-10-19T07:53:18.441Z,65.10
2022-10-19T07:54:18.455Z,68.16
2022-10-19T07:55:19.434Z,69.93
2022-10-19T07:56:18.445Z,68.64
2022-10-19T07:57:18.398Z,66.06
2022-10-19T07:58:18.448Z,69.61
2022-10-19T07:59:18.642Z,69.61
2022-10-19T08:00:20.668Z,67.51
2022-10-19T08:01:18.348Z,60.75
2022-10-19T08:02:19.266Z,68.00
2022-10-19T08:03:57.602Z,69.77
2022-10-19T08:04:55.923Z,68.00
2022-10-19T08:05:18.522Z,68.96
2022-10-19T08:06:30.709Z,67.68
2022-10-19T08:07:18.517Z,68.16
2022-10-19T08:08:18.629Z,70.42
2022-10-19T08:09:47.416Z,70.09
2022-10-19T08:10:18.266Z,68.48
2022-10-19T08:11:18.380Z,69.45
2022-10-19T08:12:18.470Z,66.87
2022-10-19T08:13:18.442Z,70.42
2022-10-19T08:14:18.191Z,70.58
2022-10-19T08:15:20.214Z,68.64
2022-10-19T08:16:18.201Z,67.19
2022-10-19T08:17:18.171Z,70.90
2022-10-19T08:18:19.677Z,70.58
2022-10-19T08:19:18.121Z,69.45
2022-10-19T08:20:18.753Z,70.09
2022-10-19T08:21:18.156Z,70.09
2022-10-19T08:22:18.346Z,68.32
2022-10-19T08:23:18.229Z,71.22
2022-10-19T08:24:18.057Z,66.39
2022-10-19T08:25:18.024Z,63.65
2022-10-19T08:26:18.024Z,70.25
2022-10-19T08:27:18.279Z,71.22
2022-10-19T08:28:19.474Z,65.58
2022-10-19T08:29:17.978Z,71.06
2022-10-19T08:30:17.978Z,71.22
2022-10-19T08:31:18.486Z,68.16
2022-10-19T08:32:20.106Z,68.64
2022-10-19T08:33:17.931Z,67.68
2022-10-19T08:34:18.208Z,67.68
2022-10-19T08:35:17.911Z,69.77
2022-10-19T08:36:18.747Z,71.87
2022-10-19T08:37:26.402Z,69.29
2022-10-19T08:38:18.105Z,67.68
2022-10-19T08:39:19.226Z,72.51
2022-10-19T08:40:18.130Z,66.06
2022-10-19T08:41:17.827Z,69.29
2022-10-19T08:42:17.934Z,73.15
2022-10-19T08:43:19.052Z,72.83
2022-10-19T08:44:18.069Z,69.93
2022-10-19T08:45:19.351Z,68.64
2022-10-19T08:46:18.625Z,67.84
2022-10-19T08:47:22.298Z,68.64
2022-10-19T08:48:17.744Z,70.74
2022-10-19T08:49:17.734Z,65.58
2022-10-19T08:50:17.744Z,67.51
2022-10-19T08:51:17.712Z,71.87
2022-10-19T08:52:18.424Z,71.38
2022-10-19T08:53:17.708Z,67.51
2022-10-19T08:54:19.680Z,68.96
2022-10-19T08:55:20.574Z,61.71
2022-10-19T08:56:38.879Z,72.03
2022-10-19T08:57:19.489Z,71.70
2022-10-19T08:58:18.033Z,69.77
2022-10-19T08:59:17.833Z,69.61
2022-10-19T09:00:21.672Z,67.68
2022-10-19T09:01:21.596Z,66.55
2022-10-19T09:02:18.499Z,66.87
2022-10-19T09:03:32.083Z,67.68
2022-10-19T09:04:17.591Z,81.37
2022-10-19T09:05:24.655Z,65.10
2022-10-19T09:06:18.415Z,70.25
2022-10-19T09:07:18.334Z,71.38
2022-10-19T09:08:49.545Z,72.03
2022-10-19T09:09:18.344Z,69.13
2022-10-19T09:10:17.508Z,66.87
2022-10-19T09:11:17.468Z,68.00
2022-10-19T09:12:17.432Z,69.29
2022-10-19T09:14:00.574Z,73.48
2022-10-19T09:14:17.441Z,78.79
2022-10-19T09:15:22.407Z,68.64
2022-10-19T09:16:17.413Z,72.67
2022-10-19T09:17:17.620Z,75.73
2022-10-19T09:18:23.189Z,70.09
2022-10-19T09:19:19.218Z,62.68
2022-10-19T09:20:18.026Z,68.64
2022-10-19T09:21:17.311Z,68.00
2022-10-19T09:22:17.567Z,69.45
2022-10-19T09:23:17.507Z,71.87
2022-10-19T09:24:18.067Z,71.38
2022-10-19T09:25:17.245Z,92.17
2022-10-19T09:26:17.995Z,72.83
2022-10-19T09:27:17.246Z,72.99
2022-10-19T09:28:19.500Z,66.06
2022-10-19T09:29:18.876Z,83.31
2022-10-19T09:30:17.274Z,69.61
2022-10-19T09:31:17.179Z,86.85
2022-10-19T09:32:17.147Z,96.84
2022-10-19T09:33:17.125Z,82.34
2022-10-19T09:34:17.144Z,67.19
2022-10-19T09:35:17.105Z,82.98
2022-10-19T09:36:22.546Z,70.09
2022-10-19T09:37:24.834Z,68.32
2022-10-19T09:38:17.310Z,70.42
2022-10-19T09:39:17.347Z,71.22
2022-10-19T09:40:17.097Z,67.51
2022-10-19T09:41:17.034Z,76.05
2022-10-19T09:42:17.010Z,65.26
2022-10-19T09:43:17.014Z,72.51
2022-10-19T09:44:17.019Z,72.19
2022-10-19T09:45:16.984Z,74.28
2022-10-19T09:46:27.460Z,70.09
2022-10-19T09:47:16.947Z,71.70
2022-10-19T09:48:16.942Z,68.16
2022-10-19T09:49:16.928Z,72.83
2022-10-19T09:50:16.920Z,84.59
2022-10-19T09:51:16.921Z,75.41
2022-10-19T09:52:16.941Z,76.05
2022-10-19T09:53:16.873Z,72.19
2022-10-19T09:54:16.877Z,79.60
2022-10-19T09:55:16.891Z,66.87
2022-10-19T09:56:16.877Z,71.06
2022-10-19T09:57:16.860Z,70.09
2022-10-19T09:58:16.884Z,78.79
2022-10-19T09:59:16.815Z,72.51
2022-10-19T10:00:16.937Z,88.95
2022-10-19T10:01:16.784Z,86.53
2022-10-19T10:02:16.779Z,75.09
2022-10-19T10:03:16.808Z,76.86
2022-10-19T10:04:16.795Z,85.24
2022-10-19T10:05:16.724Z,74.93
2022-10-19T10:06:16.746Z,82.34
2022-10-19T10:07:16.706Z,69.45
2022-10-19T10:08:16.676Z,70.42
2022-10-19T10:09:16.692Z,79.76
2022-10-19T10:10:17.494Z,65.42
2022-10-19T10:11:16.945Z,78.31
2022-10-19T10:12:16.627Z,75.25
2022-10-19T10:13:16.720Z,90.88
2022-10-19T10:14:16.625Z,76.22
2022-10-19T10:15:16.618Z,69.61
2022-10-19T10:16:18.226Z,79.76
2022-10-19T10:17:16.612Z,70.42
2022-10-19T10:18:16.625Z,69.77
2022-10-19T10:19:16.560Z,80.89
2022-10-19T10:20:17.283Z,68.64
2022-10-19T10:21:16.536Z,67.03
2022-10-19T10:22:16.576Z,70.25
2022-10-19T10:23:16.596Z,70.25
2022-10-19T10:24:16.658Z,70.74
2022-10-19T10:25:16.803Z,67.68
2022-10-19T10:26:17.731Z,69.61
2022-10-19T10:27:16.709Z,66.06
2022-10-19T10:28:16.811Z,73.48
2022-10-19T10:29:16.679Z,70.25
2022-10-19T10:30:16.441Z,80.41
2022-10-19T10:31:16.421Z,68.80
2022-10-19T10:32:16.396Z,83.79
2022-10-19T10:33:27.126Z,81.69
2022-10-19T10:34:23.188Z,78.47
2022-10-19T10:35:16.356Z,69.93
2022-10-19T10:36:16.396Z,86.85
2022-10-19T10:37:16.362Z,77.18
2022-10-19T10:38:16.308Z,68.64
2022-10-19T10:39:16.293Z,72.83
2022-10-19T10:40:19.848Z,68.32
2022-10-19T10:41:16.265Z,70.09
2022-10-19T10:42:16.265Z,65.10
2022-10-19T10:43:16.272Z,65.26
2022-10-19T10:44:16.237Z,67.84
2022-10-19T10:45:16.256Z,68.00
2022-10-19T10:46:16.329Z,82.66
2022-10-19T10:47:16.951Z,76.54
2022-10-19T10:48:16.201Z,69.77
2022-10-19T10:49:16.185Z,70.74
2022-10-19T10:50:16.252Z,71.06
2022-10-19T10:51:16.211Z,73.48
2022-10-19T10:52:24.600Z,73.80
2022-10-19T10:53:16.107Z,68.16
2022-10-19T10:54:16.111Z,89.27
2022-10-19T10:55:22.992Z,71.70
2022-10-19T10:56:19.075Z,71.70
2022-10-19T10:57:17.243Z,68.00
2022-10-19T10:58:16.371Z,71.06
2022-10-19T10:59:17.169Z,71.38
2022-10-19T11:00:16.041Z,71.87
2022-10-19T11:01:16.359Z,65.90
2022-10-19T11:02:16.091Z,70.42
2022-10-19T11:03:26.288Z,76.22
2022-10-19T11:04:16.025Z,87.17
2022-10-19T11:05:17.703Z,75.41
2022-10-19T11:06:16.020Z,70.90
2022-10-19T11:07:17.726Z,69.13
2022-10-19T11:08:17.351Z,70.74
2022-10-19T11:09:15.921Z,67.35
2022-10-19T11:10:18.644Z,66.55
2022-10-19T11:11:15.897Z,73.15
2022-10-19T11:12:15.903Z,70.09
2022-10-19T11:13:17.634Z,72.35
2022-10-19T11:14:15.853Z,77.02
2022-10-19T11:15:16.127Z,74.28
2022-10-19T11:16:16.228Z,69.13
2022-10-19T11:17:16.500Z,70.09
2022-10-19T11:18:15.825Z,67.51
2022-10-19T11:20:16.432Z,71.54
2022-10-19T11:21:15.798Z,75.09
2022-10-19T11:22:15.821Z,67.03
2022-10-19T11:23:15.739Z,69.13
2022-10-19T11:24:15.716Z,73.96
2022-10-19T11:25:16.653Z,67.68
2022-10-19T11:26:17.358Z,67.68
2022-10-19T11:27:16.550Z,70.74
2022-10-19T11:28:15.694Z,71.06
2022-10-19T11:29:15.659Z,71.70
2022-10-19T11:30:17.361Z,74.93
2022-10-19T11:31:15.713Z,66.71
2022-10-19T11:32:15.629Z,67.51
2022-10-19T11:33:16.355Z,75.73
2022-10-19T11:34:16.598Z,61.71
2022-10-19T11:35:22.460Z,71.38
2022-10-19T11:36:15.842Z,67.03
2022-10-19T11:37:15.582Z,66.55
2022-10-19T11:38:20.102Z,71.38
2022-10-19T11:39:15.554Z,78.31
2022-10-19T11:40:18.694Z,68.00
2022-10-19T11:41:18.660Z,69.61
2022-10-19T11:42:15.783Z,69.13
2022-10-19T11:43:15.503Z,68.48
2022-10-19T11:44:15.507Z,69.29
2022-10-19T11:45:15.695Z,67.51
2022-10-19T11:46:15.511Z,68.16
2022-10-19T11:47:15.441Z,71.38
2022-10-19T11:48:15.993Z,74.28
2022-10-19T11:49:16.243Z,80.24
2022-10-19T11:50:15.577Z,82.82
2022-10-19T11:51:21.615Z,68.80
2022-10-19T11:52:15.462Z,68.80
2022-10-19T11:53:17.331Z,72.03
2022-10-19T11:54:15.452Z,66.55
2022-10-19T11:55:15.348Z,65.74
2022-10-19T11:56:15.385Z,67.35
2022-10-19T11:57:16.359Z,70.90
2022-10-19T11:58:15.328Z,67.51
2022-10-19T11:59:15.517Z,76.05
2022-10-19T12:00:34.184Z,68.00
2022-10-19T12:01:15.239Z,67.19
2022-10-19T12:02:15.643Z,72.67
2022-10-19T12:03:15.307Z,82.82
2022-10-19T12:04:15.367Z,73.64
2022-10-19T12:05:15.269Z,69.45
2022-10-19T12:06:15.182Z,72.99
2022-10-19T12:07:15.178Z,64.61
2022-10-19T12:08:15.267Z,69.13
2022-10-19T12:09:15.197Z,69.29
2022-10-19T12:10:15.534Z,67.68
2022-10-19T12:11:15.114Z,67.51
2022-10-19T12:12:15.170Z,68.80
2022-10-19T12:13:15.877Z,69.93
2022-10-19T12:14:15.959Z,67.68
2022-10-19T12:15:15.098Z,69.61
2022-10-19T12:16:16.217Z,80.89
2022-10-19T12:17:20.093Z,72.35
2022-10-19T12:18:15.027Z,70.74
2022-10-19T12:19:15.799Z,69.61
2022-10-19T12:20:17.486Z,66.39
2022-10-19T12:21:15.439Z,69.13
2022-10-19T12:22:14.977Z,66.39
2022-10-19T12:23:14.957Z,83.63
2022-10-19T12:24:14.955Z,68.96
2022-10-19T12:25:14.934Z,68.96
2022-10-19T12:26:15.654Z,85.56
2022-10-19T12:27:15.011Z,68.64
2022-10-19T12:28:14.887Z,67.03
2022-10-19T12:29:14.887Z,69.77
2022-10-19T12:30:14.857Z,75.25
2022-10-19T12:31:14.867Z,69.61
2022-10-19T12:32:14.869Z,69.61
2022-10-19T12:33:14.949Z,81.86
2022-10-19T12:34:15.044Z,62.68
2022-10-19T12:35:14.853Z,68.16
2022-10-19T12:36:14.797Z,73.80
2022-10-19T12:37:15.475Z,70.09
2022-10-19T12:38:14.800Z,72.67
2022-10-19T12:39:14.770Z,66.55
2022-10-19T12:40:14.773Z,81.53
2022-10-19T12:41:14.738Z,74.93
2022-10-19T12:42:14.771Z,71.38
2022-10-19T12:43:14.720Z,75.09
2022-10-19T12:44:14.797Z,73.32
2022-10-19T12:45:14.752Z,73.48
2022-10-19T12:46:14.720Z,67.84
2022-10-19T12:47:14.716Z,63.65
2022-10-19T12:48:14.635Z,74.44
2022-10-19T12:49:14.627Z,80.08
2022-10-19T12:50:14.677Z,77.02
2022-10-19T12:51:18.452Z,73.96
2022-10-19T12:52:14.605Z,81.05
2022-10-19T12:53:14.609Z,66.06
2022-10-19T12:54:14.676Z,69.77